Time;durP1;ratioP1;P1;durP2;ratioP2;P2;SDS_P1;SDS_P2;PMS_P1;PMS_P2;Temp;Humidity;BMP_temperature;BMP_pressure;BME280_temperature;BME280_humidity;BME280_pressure;Samples;Min_cycle;Max_cycle;Signal;HPM_P1;HPM_P2
2021/07/09 00:01:57;;;;;;;4.97;3.40;;;23.50;99.90;;;;;;5021145;28;20181;-77
2021/07/09 00:04:26;;;;;;;4.17;3.40;;;23.50;99.90;;;;;;5039257;28;20192;-77
2021/07/09 00:06:55;;;;;;;5.80;3.23;;;23.50;99.90;;;;;;5038643;28;20186;-75
2021/07/09 00:09:23;;;;;;;3.90;3.27;;;23.60;99.90;;;;;;5041346;28;20307;-80
2021/07/09 00:11:53;;;;;;;5.00;3.37;;;23.60;99.90;;;;;;5025086;28;20193;-79
2021/07/09 00:14:31;;;;;;;2.97;2.67;;;23.50;99.90;;;;;;5040141;28;20545;-80
2021/07/09 00:16:57;;;;;;;4.67;3.43;;;23.50;99.90;;;;;;5043775;28;20180;-77
2021/07/09 00:19:28;;;;;;;5.13;3.30;;;23.50;99.90;;;;;;5032759;28;20950;-78
2021/07/09 00:21:57;;;;;;;4.73;3.27;;;23.60;99.90;;;;;;5011120;28;20192;-78
2021/07/09 00:24:24;;;;;;;5.87;3.10;;;23.60;99.90;;;;;;5012368;28;20243;-77
2021/07/09 00:26:50;;;;;;;4.43;3.50;;;23.60;99.90;;;;;;5025291;28;20474;-79
2021/07/09 00:29:16;;;;;;;3.43;3.13;;;23.60;99.90;;;;;;5025137;28;20220;-79
2021/07/09 00:31:43;;;;;;;4.70;3.17;;;23.60;99.90;;;;;;5003039;28;20185;-77
2021/07/09 00:34:10;;;;;;;4.37;3.37;;;23.60;99.90;;;;;;5027476;28;20851;-77
2021/07/09 00:36:38;;;;;;;4.90;3.40;;;23.60;99.90;;;;;;5027676;28;20207;-78
2021/07/09 00:39:07;;;;;;;6.65;3.15;;;23.60;99.90;;;;;;5042505;28;20184;-77
2021/07/09 00:41:34;;;;;;;3.37;3.00;;;23.60;99.90;;;;;;5023423;28;20195;-76
2021/07/09 00:44:00;;;;;;;5.30;3.07;;;23.60;99.90;;;;;;5023743;28;20254;-78
2021/07/09 00:46:39;;;;;;;4.27;3.20;;;23.60;99.90;;;;;;5040333;28;20212;-78
2021/07/09 00:49:11;;;;;;;6.03;3.33;;;23.60;99.90;;;;;;5025197;28;20238;-77
2021/07/09 00:51:38;;;;;;;3.50;3.20;;;23.60;99.90;;;;;;5022272;28;20192;-77
2021/07/09 00:54:04;;;;;;;4.30;3.10;;;23.70;99.90;;;;;;5037881;28;20709;-76
2021/07/09 00:56:32;;;;;;;3.37;3.07;;;23.60;99.90;;;;;;5021745;28;20204;-76
2021/07/09 00:59:01;;;;;;;3.40;3.10;;;23.70;99.90;;;;;;5024182;28;20195;-77
2021/07/09 01:01:27;;;;;;;8.43;3.60;;;23.60;99.90;;;;;;5033743;28;20237;-78
2021/07/09 01:03:54;;;;;;;6.03;3.20;;;23.60;99.90;;;;;;5021459;28;20318;-79
2021/07/09 01:06:20;;;;;;;5.70;3.00;;;23.60;99.90;;;;;;5021953;28;20725;-78
2021/07/09 01:08:47;;;;;;;3.87;3.33;;;23.60;99.90;;;;;;5042318;28;20208;-78
2021/07/09 01:11:13;;;;;;;4.70;3.03;;;23.50;99.90;;;;;;5008958;28;20249;-77
2021/07/09 01:13:42;;;;;;;6.17;3.20;;;23.50;99.90;;;;;;5023586;28;20195;-78
2021/07/09 01:16:12;;;;;;;3.77;3.13;;;23.50;99.90;;;;;;5026125;28;20211;-77
2021/07/09 01:18:40;;;;;;;3.33;2.93;;;23.50;99.90;;;;;;5040350;28;20184;-77
2021/07/09 01:21:09;;;;;;;8.20;3.57;;;23.50;99.90;;;;;;5040771;28;20572;-78
2021/07/09 01:23:38;;;;;;;5.87;2.80;;;23.50;99.90;;;;;;5037942;28;20181;-75
2021/07/09 01:26:05;;;;;;;4.83;3.47;;;23.50;99.90;;;;;;5027918;28;20195;-76
2021/07/09 01:28:32;;;;;;;5.47;3.13;;;23.50;99.90;;;;;;5021794;28;20303;-75
2021/07/09 01:30:59;;;;;;;5.40;3.10;;;23.50;99.90;;;;;;5027197;28;20212;-78
2021/07/09 01:33:26;;;;;;;5.73;3.10;;;23.50;99.90;;;;;;5031088;28;20192;-77
2021/07/09 01:35:53;;;;;;;8.87;3.43;;;23.60;99.90;;;;;;5026475;28;20279;-77
2021/07/09 01:38:20;;;;;;;5.60;3.20;;;23.60;99.90;;;;;;5039187;28;20208;-76
2021/07/09 01:40:46;;;;;;;4.30;3.30;;;23.60;99.90;;;;;;5023305;28;20196;-77
2021/07/09 01:43:13;;;;;;;4.93;3.10;;;23.60;99.90;;;;;;5038528;28;20239;-73
2021/07/09 01:45:39;;;;;;;5.40;3.40;;;23.60;99.90;;;;;;5022820;28;20208;-76
2021/07/09 01:48:06;;;;;;;3.17;2.87;;;23.70;99.90;;;;;;5028509;28;20723;-75
2021/07/09 01:50:33;;;;;;;5.43;3.07;;;23.60;99.90;;;;;;5037177;28;20199;-77
2021/07/09 01:53:01;;;;;;;3.67;3.07;;;23.60;99.90;;;;;;5021673;28;20279;-77
2021/07/09 01:55:27;;;;;;;4.77;3.20;;;23.60;99.90;;;;;;5020911;28;20290;-74
2021/07/09 01:57:54;;;;;;;4.70;3.20;;;23.50;99.90;;;;;;5028554;28;20200;-78
2021/07/09 02:00:25;;;;;;;3.80;3.30;;;23.50;99.90;;;;;;5017564;28;20197;-78
2021/07/09 02:02:52;;;;;;;5.27;2.80;;;23.50;99.90;;;;;;5037148;28;20937;-77
2021/07/09 02:05:22;;;;;;;4.67;2.80;;;23.50;99.90;;;;;;5014438;28;20192;-76
2021/07/09 02:07:56;;;;;;;4.00;3.30;;;23.50;99.90;;;;;;5021798;28;20184;-78
2021/07/09 02:10:27;;;;;;;6.20;2.90;;;23.50;99.90;;;;;;5019876;28;20928;-77
2021/07/09 02:12:57;;;;;;;3.77;3.23;;;23.50;99.90;;;;;;5020596;28;20215;-76
2021/07/09 02:15:29;;;;;;;4.17;3.00;;;23.50;99.90;;;;;;5037904;28;20195;-77
2021/07/09 02:17:55;;;;;;;6.57;3.03;;;23.60;99.90;;;;;;5027732;28;20200;-77
2021/07/09 02:20:25;;;;;;;5.63;3.30;;;23.60;99.90;;;;;;5031780;28;20238;-79
2021/07/09 02:22:56;;;;;;;4.33;3.50;;;23.60;99.90;;;;;;5029512;28;20644;-77
2021/07/09 02:25:22;;;;;;;6.43;2.90;;;23.60;99.90;;;;;;5020562;28;20220;-79
2021/07/09 02:27:51;;;;;;;7.17;3.20;;;23.60;99.90;;;;;;5021996;28;20234;-78
2021/07/09 02:30:19;;;;;;;4.43;3.00;;;23.60;99.90;;;;;;5034156;28;20192;-77
2021/07/09 02:32:47;;;;;;;5.63;3.23;;;23.60;99.90;;;;;;5019019;28;21177;-77
2021/07/09 02:35:21;;;;;;;4.97;3.20;;;23.50;99.90;;;;;;5027684;28;20192;-78
2021/07/09 02:37:49;;;;;;;5.73;2.93;;;23.60;99.90;;;;;;5029951;28;20191;-77
2021/07/09 02:40:22;;;;;;;3.80;2.97;;;23.50;99.90;;;;;;5021956;28;20275;-77
2021/07/09 02:42:52;;;;;;;4.90;3.00;;;23.50;99.90;;;;;;5020906;28;20188;-78
2021/07/09 02:45:20;;;;;;;6.87;2.80;;;23.50;99.90;;;;;;5018508;28;20220;-78
2021/07/09 02:47:47;;;;;;;6.37;3.27;;;23.60;99.90;;;;;;5008697;28;20572;-78
2021/07/09 02:50:18;;;;;;;7.50;3.00;;;23.60;99.90;;;;;;5028762;28;20192;-78
2021/07/09 02:52:45;;;;;;;7.23;2.97;;;23.50;99.90;;;;;;5008155;28;20641;-78
2021/07/09 02:55:13;;;;;;;4.07;3.00;;;23.50;99.90;;;;;;5022062;28;20819;-78
2021/07/09 02:57:41;;;;;;;8.03;3.17;;;23.60;99.90;;;;;;5023011;28;20188;-76
2021/07/09 03:00:15;;;;;;;3.53;2.90;;;23.60;99.90;;;;;;5025988;28;20180;-76
2021/07/09 03:02:42;;;;;;;7.17;2.70;;;23.60;99.90;;;;;;5022066;28;20717;-78
2021/07/09 03:05:11;;;;;;;7.87;2.80;;;23.60;99.90;;;;;;5028710;28;20251;-78
2021/07/09 03:07:38;;;;;;;5.17;3.03;;;23.60;99.90;;;;;;5021395;28;20226;-77
2021/07/09 03:10:08;;;;;;;4.82;2.90;;;23.60;99.90;;;;;;5012457;28;20455;-77
2021/07/09 03:12:37;;;;;;;3.93;3.13;;;23.60;99.90;;;;;;5038301;28;20203;-78
2021/07/09 03:15:07;;;;;;;3.45;2.88;;;23.60;99.90;;;;;;4992636;28;20525;-76
2021/07/09 03:17:34;;;;;;;3.63;2.60;;;23.60;99.90;;;;;;5015038;28;20231;-77
2021/07/09 03:20:00;;;;;;;3.73;2.67;;;23.60;99.90;;;;;;5035169;28;20196;-77
2021/07/09 03:22:27;;;;;;;8.47;3.17;;;23.60;99.90;;;;;;5019627;28;20220;-77
2021/07/09 03:24:53;;;;;;;3.70;2.70;;;23.70;99.90;;;;;;5037436;28;20188;-78
2021/07/09 03:27:19;;;;;;;5.23;2.83;;;23.70;99.90;;;;;;5040008;28;20184;-77
2021/07/09 03:29:45;;;;;;;6.33;2.93;;;23.70;99.90;;;;;;5019481;28;20275;-78
2021/07/09 03:32:11;;;;;;;5.33;2.87;;;23.80;99.90;;;;;;5038000;28;20278;-74
2021/07/09 03:34:38;;;;;;;7.43;3.00;;;23.80;99.90;;;;;;5035965;28;20216;-77
2021/07/09 03:37:04;;;;;;;8.37;3.33;;;23.80;99.90;;;;;;5018718;28;20187;-78
2021/07/09 03:39:31;;;;;;;5.07;2.70;;;23.80;99.90;;;;;;5039822;28;20197;-77
2021/07/09 03:41:57;;;;;;;4.77;2.50;;;23.80;99.90;;;;;;5020718;28;20269;-77
2021/07/09 03:44:23;;;;;;;6.37;2.83;;;23.80;99.90;;;;;;5021061;28;20201;-78
2021/07/09 03:46:49;;;;;;;4.17;2.60;;;23.90;99.90;;;;;;5028556;28;20208;-78
2021/07/09 03:49:17;;;;;;;4.60;2.80;;;23.90;99.90;;;;;;5027625;28;20208;-77
2021/07/09 03:51:43;;;;;;;8.57;2.97;;;23.90;99.90;;;;;;5017650;28;20625;-76
2021/07/09 03:54:12;;;;;;;4.90;3.07;;;23.90;99.90;;;;;;5036309;28;20195;-76
2021/07/09 03:56:38;;;;;;;4.83;2.80;;;23.90;99.90;;;;;;5037418;28;20237;-75
2021/07/09 03:59:05;;;;;;;3.70;2.90;;;24.00;99.90;;;;;;5035456;28;20191;-78
2021/07/09 04:01:31;;;;;;;6.63;2.80;;;23.90;99.90;;;;;;5011561;28;20192;-76
2021/07/09 04:03:57;;;;;;;5.70;3.10;;;24.00;99.90;;;;;;5020506;28;20195;-75
2021/07/09 04:06:24;;;;;;;2.50;2.30;;;24.00;99.90;;;;;;5015919;28;20254;-74
2021/07/09 04:08:50;;;;;;;5.87;3.10;;;24.00;99.90;;;;;;5016420;28;20211;-76
2021/07/09 04:11:16;;;;;;;3.78;2.70;;;24.00;99.90;;;;;;5018543;28;20196;-76
2021/07/09 04:13:42;;;;;;;3.40;2.77;;;24.00;99.90;;;;;;5020239;28;20184;-76
2021/07/09 04:16:09;;;;;;;4.80;2.75;;;24.00;99.90;;;;;;5024771;28;20219;-78
2021/07/09 04:18:35;;;;;;;3.90;2.97;;;24.00;99.90;;;;;;5039759;28;20180;-78
2021/07/09 04:21:02;;;;;;;4.13;2.85;;;24.00;99.90;;;;;;5025208;28;20204;-74
2021/07/09 04:23:28;;;;;;;3.70;2.60;;;24.00;99.90;;;;;;5008650;28;20283;-76
2021/07/09 04:25:54;;;;;;;5.07;2.70;;;24.10;99.90;;;;;;5021436;28;20282;-75
2021/07/09 04:28:21;;;;;;;2.70;2.40;;;24.10;99.90;;;;;;5041380;28;20215;-78
2021/07/09 04:30:49;;;;;;;3.67;2.97;;;24.10;99.90;;;;;;5022964;28;20446;-78
2021/07/09 04:33:17;;;;;;;3.07;2.70;;;24.10;99.90;;;;;;5030244;28;20195;-78
2021/07/09 04:35:43;;;;;;;4.43;2.78;;;24.10;99.90;;;;;;5021691;28;20232;-78
2021/07/09 04:38:09;;;;;;;4.05;2.88;;;24.20;99.90;;;;;;5015576;28;20362;-78
2021/07/09 04:40:36;;;;;;;3.87;2.70;;;24.20;99.90;;;;;;5030521;28;20184;-78
2021/07/09 04:43:05;;;;;;;2.90;2.70;;;24.30;99.90;;;;;;5037956;28;20184;-77
2021/07/09 04:45:31;;;;;;;3.00;2.53;;;24.30;99.90;;;;;;5024053;28;20311;-78
2021/07/09 04:47:58;;;;;;;3.13;2.60;;;24.30;99.90;;;;;;5023723;28;20196;-75
2021/07/09 04:50:24;;;;;;;4.25;2.95;;;24.30;99.90;;;;;;5039331;28;20188;-77
2021/07/09 04:52:50;;;;;;;2.97;2.60;;;24.40;99.90;;;;;;5010045;28;20576;-78
2021/07/09 04:55:16;;;;;;;4.53;3.08;;;24.40;99.90;;;;;;5024048;28;20208;-77
2021/07/09 04:57:43;;;;;;;3.20;2.45;;;24.50;99.90;;;;;;5023270;28;20250;-78
2021/07/09 05:00:10;;;;;;;5.47;3.08;;;24.50;99.90;;;;;;5023509;28;20545;-77
2021/07/09 05:02:38;;;;;;;3.47;2.45;;;24.50;99.90;;;;;;5038189;28;20192;-78
2021/07/09 05:05:10;;;;;;;5.15;2.85;;;24.60;99.90;;;;;;5025505;28;20211;-75
2021/07/09 05:07:37;;;;;;;3.67;2.58;;;24.60;99.90;;;;;;5020315;28;20188;-78
2021/07/09 05:10:07;;;;;;;2.80;2.60;;;24.70;99.90;;;;;;5019408;28;20553;-78
2021/07/09 05:12:33;;;;;;;4.63;3.05;;;24.70;99.90;;;;;;5024479;28;20192;-78
2021/07/09 05:15:00;;;;;;;3.47;2.58;;;24.70;99.90;;;;;;5027422;28;20212;-78
2021/07/09 05:17:26;;;;;;;4.78;3.13;;;24.80;99.90;;;;;;5028150;28;20191;-78
2021/07/09 05:19:52;;;;;;;3.85;2.70;;;24.80;99.90;;;;;;5009087;28;20530;-78
2021/07/09 05:22:23;;;;;;;3.33;3.03;;;24.80;99.90;;;;;;5032816;28;20206;-78
2021/07/09 05:24:54;;;;;;;4.72;2.90;;;24.90;99.90;;;;;;5027451;28;20184;-76
2021/07/09 05:27:24;;;;;;;4.15;3.08;;;24.90;99.90;;;;;;5023262;28;20215;-78
2021/07/09 05:29:50;;;;;;;7.15;2.85;;;25.00;99.90;;;;;;5039507;28;20434;-78
2021/07/09 05:32:26;;;;;;;4.72;2.88;;;25.20;99.90;;;;;;5026620;28;20187;-77
2021/07/09 05:34:54;;;;;;;5.45;2.90;;;25.50;99.90;;;;;;5024469;28;20537;-79
2021/07/09 05:37:21;;;;;;;5.80;2.80;;;25.70;99.90;;;;;;5024227;28;20665;-79
2021/07/09 05:39:48;;;;;;;3.67;2.95;;;25.70;99.90;;;;;;5037958;28;20206;-79
2021/07/09 05:42:15;;;;;;;5.65;3.15;;;25.50;99.90;;;;;;5029514;28;20664;-79
2021/07/09 05:44:43;;;;;;;3.20;2.90;;;25.70;99.90;;;;;;5041977;28;20243;-78
2021/07/09 05:47:14;;;;;;;6.38;2.90;;;26.00;99.90;;;;;;5020867;28;20216;-78
2021/07/09 05:49:40;;;;;;;4.63;2.63;;;26.20;99.90;;;;;;5025299;28;20285;-78
2021/07/09 05:52:08;;;;;;;4.55;2.90;;;26.40;99.90;;;;;;5022655;28;20212;-78
2021/07/09 05:54:35;;;;;;;3.60;2.65;;;26.10;99.90;;;;;;5019806;28;20549;-76
2021/07/09 05:57:02;;;;;;;3.45;2.50;;;26.20;99.90;;;;;;5028749;28;20615;-79
2021/07/09 05:59:29;;;;;;;9.02;2.90;;;26.40;99.90;;;;;;5043251;28;20196;-76
2021/07/09 06:01:55;;;;;;;7.07;2.50;;;26.70;99.90;;;;;;5023487;28;20247;-75
2021/07/09 06:04:21;;;;;;;6.30;2.58;;;27.00;99.90;;;;;;5021089;28;20278;-74
2021/07/09 06:06:47;;;;;;;2.75;2.33;;;26.90;99.90;;;;;;5019299;28;20211;-74
2021/07/09 06:09:14;;;;;;;3.17;2.47;;;26.90;99.90;;;;;;5017670;28;21489;-78
2021/07/09 06:11:41;;;;;;;6.95;2.50;;;26.70;99.90;;;;;;5014890;28;20645;-73
2021/07/09 06:14:07;;;;;;;3.10;2.65;;;27.20;99.90;;;;;;5021049;28;20267;-75
2021/07/09 06:16:33;;;;;;;4.40;2.85;;;27.30;99.90;;;;;;5034906;28;21492;-75
2021/07/09 06:18:59;;;;;;;3.30;2.78;;;26.90;99.90;;;;;;5019367;28;20237;-77
2021/07/09 06:21:26;;;;;;;5.70;2.92;;;27.30;99.90;;;;;;5033373;28;20195;-78
2021/07/09 06:23:54;;;;;;;6.30;3.05;;;27.20;99.90;;;;;;5036053;28;20684;-76
2021/07/09 06:26:22;;;;;;;4.78;2.75;;;27.20;99.90;;;;;;5020793;28;20188;-77
2021/07/09 06:28:48;;;;;;;4.32;2.60;;;27.20;99.90;;;;;;5002061;28;20219;-78
2021/07/09 06:31:15;;;;;;;4.32;2.95;;;27.60;99.90;;;;;;5020848;28;20659;-76
2021/07/09 06:33:42;;;;;;;5.40;2.65;;;27.60;99.90;;;;;;5003527;28;20203;-77
2021/07/09 06:36:08;;;;;;;5.32;2.50;;;27.80;99.90;;;;;;5020822;28;20188;-77
2021/07/09 06:38:34;;;;;;;3.10;2.45;;;27.90;99.90;;;;;;5021812;28;20684;-77
2021/07/09 06:41:01;;;;;;;3.65;2.95;;;27.80;99.90;;;;;;5028499;28;20226;-77
2021/07/09 06:43:27;;;;;;;4.75;3.30;;;28.30;99.90;;;;;;5032780;28;20199;-78
2021/07/09 06:45:53;;;;;;;3.70;2.80;;;28.50;99.90;;;;;;5018864;28;20223;-77
2021/07/09 06:48:19;;;;;;;6.55;3.20;;;28.70;99.90;;;;;;5020848;28;20957;-77
2021/07/09 06:50:46;;;;;;;5.03;2.90;;;28.80;99.90;;;;;;5020183;28;20196;-78
2021/07/09 06:53:12;;;;;;;3.97;3.05;;;28.90;99.90;;;;;;5019235;28;20199;-77
2021/07/09 06:55:38;;;;;;;3.30;2.50;;;29.10;99.80;;;;;;5034210;28;20198;-77
2021/07/09 06:58:05;;;;;;;4.68;2.75;;;29.10;99.60;;;;;;5036241;28;20230;-78
2021/07/09 07:00:31;;;;;;;4.78;2.90;;;28.90;99.50;;;;;;5022181;28;20188;-77
2021/07/09 07:02:58;;;;;;;3.63;2.88;;;29.10;99.60;;;;;;5018651;28;20841;-78
2021/07/09 07:05:24;;;;;;;8.02;2.80;;;29.20;99.90;;;;;;5020845;28;20181;-77
2021/07/09 07:07:50;;;;;;;5.05;2.47;;;29.30;99.90;;;;;;5021148;28;20289;-77
2021/07/09 07:10:17;;;;;;;3.03;2.60;;;29.40;99.50;;;;;;5033563;28;20521;-78
2021/07/09 07:12:46;;;;;;;2.88;2.40;;;29.60;99.00;;;;;;5026084;28;21119;-77
2021/07/09 07:15:14;;;;;;;5.85;2.55;;;29.90;99.00;;;;;;5007540;28;22136;-77
2021/07/09 07:17:41;;;;;;;3.05;2.45;;;29.90;98.50;;;;;;5036439;28;20184;-78
2021/07/09 07:20:09;;;;;;;4.88;2.45;;;29.90;98.20;;;;;;5003349;28;20283;-76
2021/07/09 07:22:35;;;;;;;2.88;2.58;;;30.10;97.70;;;;;;4987075;28;20254;-78
2021/07/09 07:25:02;;;;;;;4.15;2.58;;;30.20;97.00;;;;;;5018677;28;20196;-78
2021/07/09 07:27:29;;;;;;;4.53;2.50;;;30.20;97.00;;;;;;5020064;28;20246;-78
2021/07/09 07:29:58;;;;;;;3.38;2.50;;;30.30;96.80;;;;;;5034732;28;20218;-77
2021/07/09 07:32:26;;;;;;;4.00;2.70;;;30.30;96.90;;;;;;5013536;28;20176;-78
2021/07/09 07:34:52;;;;;;;6.85;2.88;;;30.10;96.60;;;;;;5033939;28;20203;-78
2021/07/09 07:37:19;;;;;;;3.17;2.50;;;30.30;96.30;;;;;;5021339;28;20208;-77
2021/07/09 07:39:46;;;;;;;5.55;2.65;;;30.30;96.10;;;;;;5034160;28;20313;-78
2021/07/09 07:42:12;;;;;;;4.30;3.00;;;30.30;96.50;;;;;;5014436;28;20196;-78
2021/07/09 07:44:38;;;;;;;4.57;2.70;;;30.40;96.50;;;;;;5014262;28;20195;-78
2021/07/09 07:47:05;;;;;;;8.25;2.90;;;30.40;96.60;;;;;;5019118;28;20573;-79
2021/07/09 07:49:32;;;;;;;4.57;2.80;;;30.40;96.80;;;;;;5025237;28;20214;-76
2021/07/09 07:51:58;;;;;;;6.10;2.83;;;30.70;96.50;;;;;;5009795;28;20188;-75
2021/07/09 07:54:24;;;;;;;5.68;2.85;;;30.50;97.00;;;;;;5029171;28;20318;-77
2021/07/09 07:56:51;;;;;;;3.45;2.55;;;30.50;97.90;;;;;;5033589;28;20188;-73
2021/07/09 07:59:17;;;;;;;4.07;3.03;;;30.70;96.90;;;;;;5036978;28;20203;-78
2021/07/09 08:01:44;;;;;;;4.05;2.78;;;30.80;96.90;;;;;;5039855;28;20192;-78
2021/07/09 08:04:10;;;;;;;6.63;2.97;;;30.80;96.80;;;;;;5021245;28;20199;-80
2021/07/09 08:06:36;;;;;;;3.83;3.30;;;30.80;97.90;;;;;;5006684;28;20191;-78
2021/07/09 08:09:03;;;;;;;6.50;3.00;;;30.80;97.80;;;;;;5039887;28;20831;-78
2021/07/09 08:11:30;;;;;;;6.57;3.55;;;30.80;99.10;;;;;;5024436;28;20203;-78
2021/07/09 08:13:57;;;;;;;3.55;3.00;;;31.00;99.20;;;;;;5034155;28;20234;-79
2021/07/09 08:16:23;;;;;;;3.15;2.47;;;30.90;98.00;;;;;;5022111;28;21050;-78
2021/07/09 08:18:50;;;;;;;7.70;2.95;;;31.00;97.90;;;;;;5025357;28;20275;-76
2021/07/09 08:21:20;;;;;;;5.32;2.97;;;31.10;98.60;;;;;;5027388;28;20215;-77
2021/07/09 08:23:47;;;;;;;3.67;2.80;;;31.30;97.70;;;;;;5025649;28;20242;-78
2021/07/09 08:26:16;;;;;;;5.80;3.22;;;31.30;97.60;;;;;;5032310;28;20251;-78
2021/07/09 08:28:44;;;;;;;9.07;3.28;;;31.30;97.60;;;;;;5031414;28;20538;-76
2021/07/09 08:31:11;;;;;;;9.23;3.70;;;31.30;99.90;;;;;;5029043;28;20334;-78
2021/07/09 08:33:37;;;;;;;6.53;3.78;;;31.30;99.90;;;;;;5024449;28;20184;-76
2021/07/09 08:36:05;;;;;;;6.03;3.72;;;31.40;99.90;;;;;;5041659;28;20187;-76
2021/07/09 08:38:31;;;;;;;7.32;3.92;;;31.40;99.90;;;;;;5038347;28;20366;-77
2021/07/09 08:40:58;;;;;;;9.10;3.70;;;31.50;99.90;;;;;;5028656;28;20214;-76
2021/07/09 08:43:24;;;;;;;5.95;3.17;;;31.60;99.90;;;;;;5026259;28;20337;-78
2021/07/09 08:45:51;;;;;;;6.40;3.70;;;31.60;99.90;;;;;;5016258;28;20359;-77
2021/07/09 08:48:20;;;;;;;6.45;3.90;;;31.60;99.90;;;;;;5024971;28;20331;-77
2021/07/09 08:50:46;;;;;;;10.57;4.15;;;31.60;99.90;;;;;;5041455;28;20518;-76
2021/07/09 08:53:12;;;;;;;5.82;3.45;;;31.50;99.90;;;;;;5043058;28;20231;-76
2021/07/09 08:56:30;;;;;;;6.78;3.78;;;31.60;99.90;;;;;;5023650;28;20367;-75
2021/07/09 08:58:56;;;;;;;5.47;3.83;;;31.70;99.90;;;;;;5044217;28;21012;-77
2021/07/09 09:01:23;;;;;;;10.52;3.53;;;31.80;99.90;;;;;;5009545;28;20181;-77
2021/07/09 09:04:03;;;;;;;9.68;3.63;;;31.90;99.90;;;;;;5008159;28;20191;-77
2021/07/09 09:06:30;;;;;;;8.32;3.92;;;31.90;99.70;;;;;;5025781;28;20168;-78
2021/07/09 09:08:57;;;;;;;6.75;3.50;;;32.00;99.90;;;;;;5025224;28;20220;-77
2021/07/09 09:11:23;;;;;;;7.90;4.22;;;31.80;99.90;;;;;;5010114;28;20548;-78
2021/07/09 09:13:49;;;;;;;5.80;4.03;;;31.90;99.90;;;;;;5023814;28;20212;-81
2021/07/09 09:16:16;;;;;;;5.25;4.00;;;31.70;99.90;;;;;;5018699;28;20204;-78
2021/07/09 09:18:55;;;;;;;9.00;4.00;;;31.90;99.90;;;;;;5022756;28;20994;-78
2021/07/09 09:21:25;;;;;;;7.10;4.22;;;32.20;99.90;;;;;;5021022;28;20188;-79
2021/07/09 09:23:54;;;;;;;8.13;4.15;;;32.30;99.90;;;;;;5031131;28;20658;-78
2021/07/09 09:26:43;;;;;;;4.55;3.65;;;32.20;99.90;;;;;;5017269;28;20184;-80
2021/07/09 09:29:38;;;;;;;5.93;4.13;;;32.30;99.90;;;;;;5017676;28;20212;-79
2021/07/09 09:32:07;;;;;;;13.25;4.63;;;32.30;99.90;;;;;;5004998;28;20330;-79
2021/07/09 09:34:49;;;;;;;9.02;4.43;;;32.50;99.90;;;;;;5024937;28;20185;-79
2021/07/09 09:37:28;;;;;;;13.32;4.45;;;32.40;99.90;;;;;;5021123;28;20184;-79
2021/07/09 09:39:54;;;;;;;9.70;4.60;;;32.30;99.90;;;;;;5041616;28;20275;-78
2021/07/09 09:42:25;;;;;;;7.65;4.15;;;32.50;99.90;;;;;;5042373;28;20268;-78
2021/07/09 09:45:03;;;;;;;6.55;4.32;;;32.50;99.90;;;;;;5022082;28;20209;-80
2021/07/09 09:47:37;;;;;;;6.93;4.45;;;32.50;99.90;;;;;;5020319;28;20943;-79
2021/07/09 09:50:09;;;;;;;9.02;4.80;;;32.60;99.90;;;;;;5028728;28;20298;-79
2021/07/09 09:52:40;;;;;;;6.38;4.50;;;32.70;99.90;;;;;;5038518;28;20172;-76
2021/07/09 09:55:19;;;;;;;11.73;4.68;;;32.80;99.90;;;;;;5027285;28;20180;-75
2021/07/09 09:58:06;;;;;;;9.20;4.80;;;33.00;99.90;;;;;;5031642;28;20228;-77
2021/07/09 10:00:34;;;;;;;6.60;4.65;;;32.90;99.90;;;;;;5049091;28;20344;-76
2021/07/09 10:03:06;;;;;;;9.32;4.68;;;33.00;99.90;;;;;;5019118;28;20192;-77
2021/07/09 10:05:53;;;;;;;8.50;4.53;;;33.00;99.90;;;;;;5025946;28;20661;-77
2021/07/09 10:08:24;;;;;;;6.05;4.40;;;33.10;99.90;;;;;;5039418;28;20265;-75
2021/07/09 10:10:51;;;;;;;6.32;4.28;;;33.10;99.90;;;;;;5042624;28;20192;-77
2021/07/09 10:13:22;;;;;;;6.80;4.50;;;33.10;99.90;;;;;;5039746;28;20188;-79
2021/07/09 10:15:51;;;;;;;9.07;4.47;;;33.10;99.90;;;;;;5011422;28;20201;-79
2021/07/09 10:18:22;;;;;;;5.43;4.25;;;33.20;99.90;;;;;;5025336;28;20218;-75
2021/07/09 10:20:49;;;;;;;9.65;5.05;;;33.30;99.90;;;;;;5012074;28;20188;-76
2021/07/09 10:23:21;;;;;;;9.00;4.60;;;33.10;99.90;;;;;;5025897;28;21066;-76
2021/07/09 10:25:50;;;;;;;7.78;4.38;;;33.30;99.90;;;;;;5030431;28;20278;-76
2021/07/09 10:28:21;;;;;;;6.10;4.72;;;33.50;99.90;;;;;;5022153;28;20203;-75
2021/07/09 10:30:49;;;;;;;8.85;4.10;;;33.70;99.90;;;;;;5021612;28;20188;-76
2021/07/09 10:33:35;;;;;;;9.57;4.90;;;33.50;99.90;;;;;;5002340;28;20184;-77
2021/07/09 10:36:07;;;;;;;8.93;4.50;;;33.70;99.90;;;;;;5005854;28;20215;-76
2021/07/09 10:38:41;;;;;;;9.52;4.57;;;33.70;99.90;;;;;;5022116;28;20197;-77
2021/07/09 10:41:17;;;;;;;8.05;4.63;;;33.70;99.90;;;;;;5030441;28;20176;-75
2021/07/09 10:44:17;;;;;;;7.68;4.65;;;33.70;99.90;;;;;;5021924;28;20741;-76
2021/07/09 10:46:45;;;;;;;8.75;4.95;;;33.60;99.90;;;;;;5027283;28;20734;-77
2021/07/09 10:49:11;;;;;;;6.13;4.53;;;33.70;99.90;;;;;;5038043;28;20822;-75
2021/07/09 10:51:53;;;;;;;7.57;4.57;;;33.60;99.90;;;;;;5006167;28;20655;-75
2021/07/09 10:54:31;;;;;;;8.48;4.85;;;33.60;99.90;;;;;;5037457;28;20193;-75
2021/07/09 10:57:21;;;;;;;9.13;4.80;;;33.50;99.90;;;;;;5029880;28;20553;-76
2021/07/09 11:00:25;;;;;;;8.05;4.47;;;33.50;99.90;;;;;;5026644;28;20568;-74
2021/07/09 11:03:04;;;;;;;6.78;4.60;;;33.50;99.90;;;;;;5036898;28;20303;-77
2021/07/09 11:06:36;;;;;;;9.82;4.38;;;33.60;99.90;;;;;;5016336;28;20180;-74
2021/07/09 11:09:11;;;;;;;9.05;4.38;;;33.50;99.90;;;;;;5039786;28;20208;-75
2021/07/09 11:11:47;;;;;;;8.27;4.55;;;33.70;99.70;;;;;;5024140;28;20915;-76
2021/07/09 11:14:16;;;;;;;6.53;4.30;;;33.60;99.10;;;;;;5026040;28;20194;-76
2021/07/09 11:17:00;;;;;;;8.07;4.30;;;33.60;99.80;;;;;;5007456;28;20180;-75
2021/07/09 11:19:33;;;;;;;5.70;4.22;;;33.30;99.90;;;;;;5022120;28;20192;-77
2021/07/09 11:22:12;;;;;;;6.38;4.15;;;33.30;99.40;;;;;;5023175;28;20536;-75
2021/07/09 11:24:56;;;;;;;8.35;4.50;;;33.20;99.10;;;;;;5038999;28;20326;-75
2021/07/09 11:27:27;;;;;;;5.30;4.55;;;33.50;98.30;;;;;;5022518;28;20194;-76
2021/07/09 11:29:59;;;;;;;8.00;4.72;;;33.40;98.20;;;;;;5020513;28;20240;-77
2021/07/09 11:32:26;;;;;;;6.45;4.20;;;33.50;97.80;;;;;;5035748;28;20580;-77
2021/07/09 11:34:57;;;;;;;6.70;4.60;;;33.50;98.40;;;;;;5020544;28;20184;-76
2021/07/09 11:37:36;;;;;;;7.40;4.80;;;33.50;97.70;;;;;;5019192;28;20263;-74
2021/07/09 11:40:16;;;;;;;14.82;4.95;;;33.60;97.40;;;;;;5038881;28;20195;-76
2021/07/09 11:42:43;;;;;;;8.77;5.38;;;33.40;98.30;;;;;;5038913;28;20246;-75
2021/07/09 11:45:14;;;;;;;8.25;4.53;;;33.40;97.00;;;;;;5027606;28;20188;-75
2021/07/09 11:47:44;;;;;;;10.07;4.60;;;33.60;96.30;;;;;;5022484;28;20203;-76
2021/07/09 11:50:17;;;;;;;7.65;4.63;;;33.70;95.60;;;;;;5005465;28;20841;-79
2021/07/09 11:52:49;;;;;;;8.43;4.45;;;33.70;96.20;;;;;;5011354;28;20234;-76
2021/07/09 11:55:26;;;;;;;20.23;4.78;;;33.90;95.00;;;;;;5038729;28;20199;-75
2021/07/09 11:57:52;;;;;;;9.30;4.78;;;33.60;95.10;;;;;;5021143;28;20180;-75
2021/07/09 12:00:22;;;;;;;5.65;4.45;;;33.50;95.20;;;;;;5024542;28;20651;-78
2021/07/09 12:02:50;;;;;;;6.13;4.70;;;33.70;93.10;;;;;;5020181;28;20197;-78
2021/07/09 12:05:25;;;;;;;7.28;4.25;;;33.70;93.40;;;;;;5033511;28;20262;-79
2021/07/09 12:07:54;;;;;;;6.03;4.72;;;33.60;92.70;;;;;;5016010;28;20183;-79
2021/07/09 12:10:27;;;;;;;6.18;4.38;;;33.70;93.20;;;;;;5034936;28;20554;-78
2021/07/09 12:12:59;;;;;;;5.57;5.03;;;33.50;92.90;;;;;;5034186;28;20184;-78
2021/07/09 12:15:37;;;;;;;8.77;4.90;;;32.90;94.10;;;;;;5028503;28;20293;-79
2021/07/09 12:18:17;;;;;;;8.68;3.92;;;33.20;93.10;;;;;;5047462;28;20184;-78
2021/07/09 12:20:48;;;;;;;5.43;4.10;;;33.10;92.10;;;;;;5029375;28;20271;-78
2021/07/09 12:23:20;;;;;;;6.95;4.40;;;33.70;92.20;;;;;;5041340;28;20188;-76
2021/07/09 12:26:00;;;;;;;7.68;4.25;;;33.90;91.30;;;;;;5025330;28;20510;-78
2021/07/09 12:28:31;;;;;;;10.93;4.53;;;33.90;90.90;;;;;;5033181;28;20778;-77
2021/07/09 12:31:02;;;;;;;4.88;3.90;;;33.80;91.50;;;;;;5020354;28;20177;-76
2021/07/09 12:33:38;;;;;;;6.38;3.88;;;33.90;92.00;;;;;;5022671;28;20188;-77
2021/07/09 12:36:11;;;;;;;6.03;4.03;;;33.80;91.20;;;;;;5036125;28;20200;-77
2021/07/09 12:38:43;;;;;;;5.20;4.28;;;33.60;91.10;;;;;;5035442;28;20234;-78
2021/07/09 12:41:14;;;;;;;5.10;4.57;;;33.60;92.40;;;;;;5042119;28;20188;-78
2021/07/09 12:43:48;;;;;;;7.28;4.55;;;33.40;91.80;;;;;;5044549;28;20195;-78
2021/07/09 12:46:21;;;;;;;5.55;4.20;;;33.50;90.70;;;;;;5033053;28;20220;-79
2021/07/09 12:49:10;;;;;;;7.15;4.20;;;33.60;91.00;;;;;;5033250;28;20219;-77
2021/07/09 12:51:43;;;;;;;5.10;4.60;;;33.20;92.00;;;;;;5055395;28;20195;-78
2021/07/09 12:54:15;;;;;;;9.25;4.07;;;32.80;92.70;;;;;;5023523;28;20192;-77
2021/07/09 12:56:47;;;;;;;10.77;4.22;;;33.60;88.70;;;;;;5050780;28;20223;-78
2021/07/09 12:59:25;;;;;;;7.22;4.50;;;33.40;92.10;;;;;;5034781;28;20730;-78